El Centro Naf Airport El Centro US
ICAO: KNJK
IATA: NJK
Category: Medium
Scheduled Services: No

Elevation: -42 ft
TransAlt. 18000 ft.

Airport Communications:
ATIS:26.927
CLNC DEL:34.02
GND:121.9
PMSV METRO:34.83
TWR:119.1

KNJK Zoom In..

Runways:

(A) RW 08 length 9503 ft width 200 ft
---- / hdg 77

(B) RW 12 length 6824 ft width 200 ft
---- / hdg 122

(C) RW 26 length 9503 ft width 200 ft
---- / hdg 257

(D) RW 30 length 6824 ft width 200 ft
---- / hdg 302

Location; KNJK
Day. 22 / Time. 23.56 Zulu
* Altimeter: 30.20
* Temperature: 18° c. 64.4°f.
* Wind from: 260° Speed 04 kn.
Dewpoint: -12° c.
Visibility: 10 Statute Miles.
Clouds: Few 7000 ft.
Clouds: Few 7000 ft.
Conditions: Smoke.

KNJK 222356Z 26004KT 10SM FEW070 18/M12 A3020 RMK AO2 SLP242 FU FEW070 T01831122 10189 20144 56013


Wind From 260°
Speed 04 kn.

YouTube Music Video
 
jpsmedia.com for Web Design  worldairports.se 2018   terms of use